sensor_id;sensor_type;location;lat;lon;timestamp;P1;durP1;ratioP1;P2;durP2;ratioP2
49488;SDS011;35382;51.484;11.476;2023-03-03T00:00:02;29.23;;;12.52;;
49488;SDS011;35382;51.484;11.476;2023-03-03T00:01:52;32.10;;;13.43;;
49488;SDS011;35382;51.484;11.476;2023-03-03T00:03:33;34.22;;;15.15;;
49488;SDS011;35382;51.484;11.476;2023-03-03T00:05:14;29.08;;;13.40;;
49488;SDS011;35382;51.484;11.476;2023-03-03T00:06:57;31.95;;;13.80;;
49488;SDS011;35382;51.484;11.476;2023-03-03T00:08:39;34.40;;;12.30;;
49488;SDS011;35382;51.484;11.476;2023-03-03T00:10:20;37.20;;;13.13;;
49488;SDS011;35382;51.484;11.476;2023-03-03T00:12:01;29.60;;;13.43;;
49488;SDS011;35382;51.484;11.476;2023-03-03T00:13:55;27.35;;;13.13;;
49488;SDS011;35382;51.484;11.476;2023-03-03T00:15:36;29.17;;;13.00;;
49488;SDS011;35382;51.484;11.476;2023-03-03T00:17:21;32.33;;;14.05;;
49488;SDS011;35382;51.484;11.476;2023-03-03T00:19:14;31.27;;;13.27;;
49488;SDS011;35382;51.484;11.476;2023-03-03T00:20:58;25.17;;;11.95;;
49488;SDS011;35382;51.484;11.476;2023-03-03T00:22:40;37.38;;;12.73;;
49488;SDS011;35382;51.484;11.476;2023-03-03T00:24:39;30.48;;;12.15;;
49488;SDS011;35382;51.484;11.476;2023-03-03T00:26:36;26.73;;;12.10;;
49488;SDS011;35382;51.484;11.476;2023-03-03T00:28:20;25.10;;;12.02;;
49488;SDS011;35382;51.484;11.476;2023-03-03T00:30:16;24.45;;;11.93;;
49488;SDS011;35382;51.484;11.476;2023-03-03T00:33:55;21.63;;;10.88;;
49488;SDS011;35382;51.484;11.476;2023-03-03T00:35:38;20.85;;;11.00;;
49488;SDS011;35382;51.484;11.476;2023-03-03T00:37:22;25.70;;;13.57;;
49488;SDS011;35382;51.484;11.476;2023-03-03T00:39:16;27.45;;;11.57;;
49488;SDS011;35382;51.484;11.476;2023-03-03T00:41:18;28.52;;;10.85;;
49488;SDS011;35382;51.484;11.476;2023-03-03T00:43:22;23.98;;;11.07;;
49488;SDS011;35382;51.484;11.476;2023-03-03T00:45:21;26.63;;;10.48;;
49488;SDS011;35382;51.484;11.476;2023-03-03T00:49:23;26.40;;;10.88;;
49488;SDS011;35382;51.484;11.476;2023-03-03T00:51:19;23.00;;;10.43;;
49488;SDS011;35382;51.484;11.476;2023-03-03T00:53:15;19.55;;;9.82;;
49488;SDS011;35382;51.484;11.476;2023-03-03T00:54:57;20.70;;;10.07;;
49488;SDS011;35382;51.484;11.476;2023-03-03T00:56:38;23.27;;;10.80;;
49488;SDS011;35382;51.484;11.476;2023-03-03T00:58:23;21.15;;;10.07;;
49488;SDS011;35382;51.484;11.476;2023-03-03T01:00:05;23.60;;;10.90;;
49488;SDS011;35382;51.484;11.476;2023-03-03T01:01:47;25.00;;;11.43;;
49488;SDS011;35382;51.484;11.476;2023-03-03T01:03:28;23.33;;;10.43;;
49488;SDS011;35382;51.484;11.476;2023-03-03T01:05:09;21.95;;;10.55;;
49488;SDS011;35382;51.484;11.476;2023-03-03T01:06:53;26.10;;;11.00;;
49488;SDS011;35382;51.484;11.476;2023-03-03T01:08:34;20.63;;;10.60;;
49488;SDS011;35382;51.484;11.476;2023-03-03T01:10:15;24.55;;;10.80;;
49488;SDS011;35382;51.484;11.476;2023-03-03T01:11:56;20.90;;;10.48;;
49488;SDS011;35382;51.484;11.476;2023-03-03T01:13:39;24.27;;;10.70;;
49488;SDS011;35382;51.484;11.476;2023-03-03T01:15:24;18.90;;;9.15;;
49488;SDS011;35382;51.484;11.476;2023-03-03T01:17:05;21.33;;;9.32;;
49488;SDS011;35382;51.484;11.476;2023-03-03T01:18:46;19.35;;;9.52;;
49488;SDS011;35382;51.484;11.476;2023-03-03T01:20:27;17.40;;;9.10;;
49488;SDS011;35382;51.484;11.476;2023-03-03T01:22:08;17.08;;;8.88;;
49488;SDS011;35382;51.484;11.476;2023-03-03T01:23:48;20.00;;;9.10;;
49488;SDS011;35382;51.484;11.476;2023-03-03T01:25:29;25.45;;;9.57;;
49488;SDS011;35382;51.484;11.476;2023-03-03T01:27:10;19.35;;;8.82;;
49488;SDS011;35382;51.484;11.476;2023-03-03T01:28:51;22.30;;;9.48;;
49488;SDS011;35382;51.484;11.476;2023-03-03T01:30:32;21.63;;;9.15;;
49488;SDS011;35382;51.484;11.476;2023-03-03T01:32:13;21.65;;;9.35;;
49488;SDS011;35382;51.484;11.476;2023-03-03T01:33:54;20.27;;;9.90;;
49488;SDS011;35382;51.484;11.476;2023-03-03T01:35:35;22.38;;;10.80;;
49488;SDS011;35382;51.484;11.476;2023-03-03T01:37:16;20.35;;;9.05;;
49488;SDS011;35382;51.484;11.476;2023-03-03T01:38:57;18.55;;;9.93;;
49488;SDS011;35382;51.484;11.476;2023-03-03T01:40:38;20.27;;;9.18;;
49488;SDS011;35382;51.484;11.476;2023-03-03T01:42:20;20.52;;;9.63;;
49488;SDS011;35382;51.484;11.476;2023-03-03T01:44:01;17.38;;;9.20;;
49488;SDS011;35382;51.484;11.476;2023-03-03T01:46:17;18.27;;;9.27;;
49488;SDS011;35382;51.484;11.476;2023-03-03T01:47:51;24.60;;;9.02;;
49488;SDS011;35382;51.484;11.476;2023-03-03T01:51:33;16.90;;;9.35;;
49488;SDS011;35382;51.484;11.476;2023-03-03T01:53:19;16.55;;;8.55;;
49488;SDS011;35382;51.484;11.476;2023-03-03T01:55:04;17.50;;;8.77;;
49488;SDS011;35382;51.484;11.476;2023-03-03T01:56:52;19.05;;;9.38;;
49488;SDS011;35382;51.484;11.476;2023-03-03T01:58:39;15.93;;;8.15;;
49488;SDS011;35382;51.484;11.476;2023-03-03T02:00:22;16.77;;;8.80;;
49488;SDS011;35382;51.484;11.476;2023-03-03T02:02:04;15.23;;;8.13;;
49488;SDS011;35382;51.484;11.476;2023-03-03T02:03:45;17.02;;;8.38;;
49488;SDS011;35382;51.484;11.476;2023-03-03T02:05:26;15.38;;;8.25;;
49488;SDS011;35382;51.484;11.476;2023-03-03T02:07:08;18.45;;;8.32;;
49488;SDS011;35382;51.484;11.476;2023-03-03T02:10:58;16.03;;;7.97;;
49488;SDS011;35382;51.484;11.476;2023-03-03T02:12:40;16.70;;;8.13;;
49488;SDS011;35382;51.484;11.476;2023-03-03T02:14:27;16.13;;;7.80;;
49488;SDS011;35382;51.484;11.476;2023-03-03T02:16:08;16.52;;;8.30;;
49488;SDS011;35382;51.484;11.476;2023-03-03T02:17:49;17.38;;;8.50;;
49488;SDS011;35382;51.484;11.476;2023-03-03T02:21:26;18.73;;;9.15;;
49488;SDS011;35382;51.484;11.476;2023-03-03T02:23:19;23.13;;;10.02;;
49488;SDS011;35382;51.484;11.476;2023-03-03T02:25:02;16.38;;;8.82;;
49488;SDS011;35382;51.484;11.476;2023-03-03T02:26:47;21.10;;;9.27;;
49488;SDS011;35382;51.484;11.476;2023-03-03T02:28:31;23.45;;;10.18;;
49488;SDS011;35382;51.484;11.476;2023-03-03T02:30:19;19.73;;;10.10;;
49488;SDS011;35382;51.484;11.476;2023-03-03T02:32:01;19.02;;;10.00;;
49488;SDS011;35382;51.484;11.476;2023-03-03T02:33:43;20.13;;;9.45;;
49488;SDS011;35382;51.484;11.476;2023-03-03T02:35:36;18.73;;;9.55;;
49488;SDS011;35382;51.484;11.476;2023-03-03T02:37:18;18.88;;;8.75;;
49488;SDS011;35382;51.484;11.476;2023-03-03T02:39:09;19.33;;;9.13;;
49488;SDS011;35382;51.484;11.476;2023-03-03T02:41:17;19.55;;;9.27;;
49488;SDS011;35382;51.484;11.476;2023-03-03T02:43:11;18.42;;;8.60;;
49488;SDS011;35382;51.484;11.476;2023-03-03T02:44:52;24.77;;;10.82;;
49488;SDS011;35382;51.484;11.476;2023-03-03T02:46:34;18.23;;;9.32;;
49488;SDS011;35382;51.484;11.476;2023-03-03T02:48:17;18.90;;;9.45;;
49488;SDS011;35382;51.484;11.476;2023-03-03T02:49:58;21.15;;;9.77;;
49488;SDS011;35382;51.484;11.476;2023-03-03T02:51:39;23.13;;;10.43;;
49488;SDS011;35382;51.484;11.476;2023-03-03T02:53:20;24.80;;;10.65;;
49488;SDS011;35382;51.484;11.476;2023-03-03T02:55:01;28.27;;;10.43;;
49488;SDS011;35382;51.484;11.476;2023-03-03T02:56:42;21.10;;;9.43;;
49488;SDS011;35382;51.484;11.476;2023-03-03T02:58:24;26.88;;;9.70;;
49488;SDS011;35382;51.484;11.476;2023-03-03T03:00:05;25.45;;;10.57;;
49488;SDS011;35382;51.484;11.476;2023-03-03T03:01:46;19.65;;;9.68;;
49488;SDS011;35382;51.484;11.476;2023-03-03T03:03:31;21.23;;;10.93;;
49488;SDS011;35382;51.484;11.476;2023-03-03T03:05:12;25.20;;;10.73;;
49488;SDS011;35382;51.484;11.476;2023-03-03T03:06:54;24.58;;;9.63;;
49488;SDS011;35382;51.484;11.476;2023-03-03T03:08:37;31.40;;;10.93;;
49488;SDS011;35382;51.484;11.476;2023-03-03T03:10:17;21.52;;;10.90;;
49488;SDS011;35382;51.484;11.476;2023-03-03T03:11:59;22.52;;;10.55;;
49488;SDS011;35382;51.484;11.476;2023-03-03T03:13:42;25.75;;;10.18;;
49488;SDS011;35382;51.484;11.476;2023-03-03T03:15:27;25.13;;;11.30;;
49488;SDS011;35382;51.484;11.476;2023-03-03T03:17:08;27.15;;;10.25;;
49488;SDS011;35382;51.484;11.476;2023-03-03T03:18:51;24.42;;;10.68;;
49488;SDS011;35382;51.484;11.476;2023-03-03T03:20:36;22.85;;;10.75;;
49488;SDS011;35382;51.484;11.476;2023-03-03T03:22:19;25.85;;;10.30;;
49488;SDS011;35382;51.484;11.476;2023-03-03T03:24:00;22.25;;;10.45;;
49488;SDS011;35382;51.484;11.476;2023-03-03T03:25:44;21.38;;;10.68;;
49488;SDS011;35382;51.484;11.476;2023-03-03T03:27:30;19.90;;;10.02;;
49488;SDS011;35382;51.484;11.476;2023-03-03T03:29:11;19.50;;;10.38;;
49488;SDS011;35382;51.484;11.476;2023-03-03T03:30:52;20.23;;;9.50;;
49488;SDS011;35382;51.484;11.476;2023-03-03T03:32:35;22.25;;;9.93;;
49488;SDS011;35382;51.484;11.476;2023-03-03T03:34:17;21.17;;;9.98;;
49488;SDS011;35382;51.484;11.476;2023-03-03T03:35:58;21.20;;;10.25;;
49488;SDS011;35382;51.484;11.476;2023-03-03T03:37:40;27.25;;;10.60;;
49488;SDS011;35382;51.484;11.476;2023-03-03T03:39:21;20.90;;;9.82;;
49488;SDS011;35382;51.484;11.476;2023-03-03T03:41:05;24.52;;;10.20;;
49488;SDS011;35382;51.484;11.476;2023-03-03T03:42:47;22.27;;;10.27;;
49488;SDS011;35382;51.484;11.476;2023-03-03T03:44:28;20.00;;;10.50;;
49488;SDS011;35382;51.484;11.476;2023-03-03T03:46:09;22.73;;;10.52;;
49488;SDS011;35382;51.484;11.476;2023-03-03T03:47:50;23.98;;;9.95;;
49488;SDS011;35382;51.484;11.476;2023-03-03T03:49:32;20.50;;;9.45;;
49488;SDS011;35382;51.484;11.476;2023-03-03T03:51:13;19.67;;;9.90;;
49488;SDS011;35382;51.484;11.476;2023-03-03T03:52:55;39.15;;;11.77;;
49488;SDS011;35382;51.484;11.476;2023-03-03T03:54:36;26.70;;;9.82;;
49488;SDS011;35382;51.484;11.476;2023-03-03T03:56:17;16.73;;;8.98;;
49488;SDS011;35382;51.484;11.476;2023-03-03T03:58:00;21.23;;;10.15;;
49488;SDS011;35382;51.484;11.476;2023-03-03T03:59:41;23.52;;;10.35;;
49488;SDS011;35382;51.484;11.476;2023-03-03T04:01:22;30.40;;;10.85;;
49488;SDS011;35382;51.484;11.476;2023-03-03T04:03:05;23.25;;;10.23;;
49488;SDS011;35382;51.484;11.476;2023-03-03T04:04:46;20.77;;;9.50;;
49488;SDS011;35382;51.484;11.476;2023-03-03T04:06:27;21.63;;;10.35;;
49488;SDS011;35382;51.484;11.476;2023-03-03T04:08:08;19.85;;;9.30;;
49488;SDS011;35382;51.484;11.476;2023-03-03T04:09:50;23.25;;;9.07;;
49488;SDS011;35382;51.484;11.476;2023-03-03T04:11:31;18.08;;;9.38;;
49488;SDS011;35382;51.484;11.476;2023-03-03T04:13:14;21.08;;;10.05;;
49488;SDS011;35382;51.484;11.476;2023-03-03T04:14:55;19.85;;;9.73;;
49488;SDS011;35382;51.484;11.476;2023-03-03T04:16:40;21.08;;;9.77;;
49488;SDS011;35382;51.484;11.476;2023-03-03T04:18:22;18.45;;;8.23;;
49488;SDS011;35382;51.484;11.476;2023-03-03T04:20:04;16.67;;;8.77;;
49488;SDS011;35382;51.484;11.476;2023-03-03T04:21:46;22.33;;;8.63;;
49488;SDS011;35382;51.484;11.476;2023-03-03T04:23:27;19.88;;;8.82;;
49488;SDS011;35382;51.484;11.476;2023-03-03T04:25:08;22.65;;;8.82;;
49488;SDS011;35382;51.484;11.476;2023-03-03T04:26:55;18.80;;;8.80;;
49488;SDS011;35382;51.484;11.476;2023-03-03T04:28:36;18.77;;;8.57;;
49488;SDS011;35382;51.484;11.476;2023-03-03T04:30:17;18.67;;;8.57;;
49488;SDS011;35382;51.484;11.476;2023-03-03T04:32:01;21.58;;;9.25;;
49488;SDS011;35382;51.484;11.476;2023-03-03T04:33:43;19.67;;;9.82;;
49488;SDS011;35382;51.484;11.476;2023-03-03T04:35:24;18.05;;;9.20;;
49488;SDS011;35382;51.484;11.476;2023-03-03T04:37:04;22.65;;;9.63;;
49488;SDS011;35382;51.484;11.476;2023-03-03T04:38:46;26.90;;;9.95;;
49488;SDS011;35382;51.484;11.476;2023-03-03T04:40:27;27.33;;;8.73;;
49488;SDS011;35382;51.484;11.476;2023-03-03T04:42:08;16.00;;;7.88;;
49488;SDS011;35382;51.484;11.476;2023-03-03T04:43:49;17.45;;;8.23;;
49488;SDS011;35382;51.484;11.476;2023-03-03T04:45:31;24.40;;;8.45;;
49488;SDS011;35382;51.484;11.476;2023-03-03T04:47:12;24.33;;;10.02;;
49488;SDS011;35382;51.484;11.476;2023-03-03T04:48:53;19.40;;;8.35;;
49488;SDS011;35382;51.484;11.476;2023-03-03T04:50:34;21.10;;;8.70;;
49488;SDS011;35382;51.484;11.476;2023-03-03T04:52:15;18.77;;;8.50;;
49488;SDS011;35382;51.484;11.476;2023-03-03T04:53:56;17.73;;;8.10;;
49488;SDS011;35382;51.484;11.476;2023-03-03T04:55:37;18.40;;;9.10;;
49488;SDS011;35382;51.484;11.476;2023-03-03T04:57:22;18.83;;;8.80;;
49488;SDS011;35382;51.484;11.476;2023-03-03T04:59:03;25.27;;;10.15;;
49488;SDS011;35382;51.484;11.476;2023-03-03T05:00:45;20.52;;;9.10;;
49488;SDS011;35382;51.484;11.476;2023-03-03T05:02:26;22.80;;;9.93;;
49488;SDS011;35382;51.484;11.476;2023-03-03T05:04:08;22.13;;;9.20;;
49488;SDS011;35382;51.484;11.476;2023-03-03T05:05:49;21.30;;;9.50;;
49488;SDS011;35382;51.484;11.476;2023-03-03T05:07:30;20.98;;;9.60;;
49488;SDS011;35382;51.484;11.476;2023-03-03T05:09:11;24.63;;;10.10;;
49488;SDS011;35382;51.484;11.476;2023-03-03T05:10:52;21.27;;;9.25;;
49488;SDS011;35382;51.484;11.476;2023-03-03T05:12:34;19.48;;;8.93;;
49488;SDS011;35382;51.484;11.476;2023-03-03T05:14:15;18.73;;;9.05;;
49488;SDS011;35382;51.484;11.476;2023-03-03T05:15:56;20.45;;;8.40;;
49488;SDS011;35382;51.484;11.476;2023-03-03T05:17:37;18.17;;;8.43;;
49488;SDS011;35382;51.484;11.476;2023-03-03T05:19:18;18.80;;;9.13;;
49488;SDS011;35382;51.484;11.476;2023-03-03T05:20:59;16.83;;;8.25;;
49488;SDS011;35382;51.484;11.476;2023-03-03T05:22:39;17.45;;;8.02;;
49488;SDS011;35382;51.484;11.476;2023-03-03T05:24:21;17.25;;;7.93;;
49488;SDS011;35382;51.484;11.476;2023-03-03T05:26:02;15.02;;;7.25;;
49488;SDS011;35382;51.484;11.476;2023-03-03T05:27:43;15.63;;;7.70;;
49488;SDS011;35382;51.484;11.476;2023-03-03T05:29:23;15.38;;;7.43;;
49488;SDS011;35382;51.484;11.476;2023-03-03T05:31:04;19.13;;;7.57;;
49488;SDS011;35382;51.484;11.476;2023-03-03T05:32:45;14.00;;;7.32;;
49488;SDS011;35382;51.484;11.476;2023-03-03T05:34:26;18.73;;;8.82;;
49488;SDS011;35382;51.484;11.476;2023-03-03T05:36:07;15.60;;;7.53;;
49488;SDS011;35382;51.484;11.476;2023-03-03T05:37:48;18.45;;;8.18;;
49488;SDS011;35382;51.484;11.476;2023-03-03T05:39:29;15.95;;;7.82;;
49488;SDS011;35382;51.484;11.476;2023-03-03T05:41:10;17.80;;;7.93;;
49488;SDS011;35382;51.484;11.476;2023-03-03T05:42:51;16.33;;;8.65;;
49488;SDS011;35382;51.484;11.476;2023-03-03T05:44:33;16.67;;;8.05;;
49488;SDS011;35382;51.484;11.476;2023-03-03T05:46:14;17.38;;;7.80;;
49488;SDS011;35382;51.484;11.476;2023-03-03T05:47:55;17.35;;;8.20;;
49488;SDS011;35382;51.484;11.476;2023-03-03T05:49:36;18.83;;;8.43;;
49488;SDS011;35382;51.484;11.476;2023-03-03T05:51:17;18.38;;;8.85;;
49488;SDS011;35382;51.484;11.476;2023-03-03T05:52:59;18.13;;;8.75;;
49488;SDS011;35382;51.484;11.476;2023-03-03T05:54:40;17.83;;;7.72;;
49488;SDS011;35382;51.484;11.476;2023-03-03T05:56:21;16.77;;;7.97;;
49488;SDS011;35382;51.484;11.476;2023-03-03T05:58:04;18.45;;;8.77;;
49488;SDS011;35382;51.484;11.476;2023-03-03T05:59:45;20.23;;;8.55;;
49488;SDS011;35382;51.484;11.476;2023-03-03T06:01:27;21.00;;;8.50;;
49488;SDS011;35382;51.484;11.476;2023-03-03T06:03:08;19.08;;;8.05;;
49488;SDS011;35382;51.484;11.476;2023-03-03T06:04:49;21.83;;;9.30;;
49488;SDS011;35382;51.484;11.476;2023-03-03T06:06:30;22.20;;;9.00;;
49488;SDS011;35382;51.484;11.476;2023-03-03T06:08:11;19.73;;;8.18;;
49488;SDS011;35382;51.484;11.476;2023-03-03T06:09:54;20.13;;;8.43;;
49488;SDS011;35382;51.484;11.476;2023-03-03T06:11:35;21.58;;;9.25;;
49488;SDS011;35382;51.484;11.476;2023-03-03T06:13:17;21.13;;;9.55;;
49488;SDS011;35382;51.484;11.476;2023-03-03T06:14:57;20.67;;;8.93;;
49488;SDS011;35382;51.484;11.476;2023-03-03T06:16:38;22.15;;;9.60;;
49488;SDS011;35382;51.484;11.476;2023-03-03T06:18:19;26.00;;;10.07;;
49488;SDS011;35382;51.484;11.476;2023-03-03T06:20:00;23.02;;;9.52;;
49488;SDS011;35382;51.484;11.476;2023-03-03T06:21:44;20.55;;;8.80;;
49488;SDS011;35382;51.484;11.476;2023-03-03T06:23:25;21.75;;;9.20;;
49488;SDS011;35382;51.484;11.476;2023-03-03T06:25:06;22.58;;;9.85;;
49488;SDS011;35382;51.484;11.476;2023-03-03T06:26:47;21.35;;;9.30;;
49488;SDS011;35382;51.484;11.476;2023-03-03T06:28:28;23.85;;;9.45;;
49488;SDS011;35382;51.484;11.476;2023-03-03T06:30:10;25.27;;;9.75;;
49488;SDS011;35382;51.484;11.476;2023-03-03T06:31:52;23.13;;;9.15;;
49488;SDS011;35382;51.484;11.476;2023-03-03T06:33:34;22.15;;;9.23;;
49488;SDS011;35382;51.484;11.476;2023-03-03T06:35:15;23.77;;;9.63;;
49488;SDS011;35382;51.484;11.476;2023-03-03T06:36:58;23.55;;;10.13;;
49488;SDS011;35382;51.484;11.476;2023-03-03T06:38:39;29.70;;;10.98;;
49488;SDS011;35382;51.484;11.476;2023-03-03T06:40:23;30.83;;;12.13;;
49488;SDS011;35382;51.484;11.476;2023-03-03T06:42:05;25.58;;;10.23;;
49488;SDS011;35382;51.484;11.476;2023-03-03T06:43:46;23.75;;;9.80;;
49488;SDS011;35382;51.484;11.476;2023-03-03T06:45:27;25.30;;;9.90;;
49488;SDS011;35382;51.484;11.476;2023-03-03T06:47:08;25.35;;;9.45;;
49488;SDS011;35382;51.484;11.476;2023-03-03T06:48:49;21.63;;;9.50;;
49488;SDS011;35382;51.484;11.476;2023-03-03T06:50:30;25.25;;;10.30;;
49488;SDS011;35382;51.484;11.476;2023-03-03T06:52:12;24.92;;;10.93;;
49488;SDS011;35382;51.484;11.476;2023-03-03T06:54:05;26.65;;;10.60;;
49488;SDS011;35382;51.484;11.476;2023-03-03T06:55:50;27.00;;;10.80;;
49488;SDS011;35382;51.484;11.476;2023-03-03T06:57:32;25.10;;;10.77;;
49488;SDS011;35382;51.484;11.476;2023-03-03T06:59:13;25.55;;;10.45;;
49488;SDS011;35382;51.484;11.476;2023-03-03T07:01:02;26.70;;;10.18;;
49488;SDS011;35382;51.484;11.476;2023-03-03T07:03:04;27.95;;;10.35;;
49488;SDS011;35382;51.484;11.476;2023-03-03T07:04:52;24.60;;;9.68;;
49488;SDS011;35382;51.484;11.476;2023-03-03T07:06:35;25.52;;;10.07;;
49488;SDS011;35382;51.484;11.476;2023-03-03T07:08:17;24.90;;;9.90;;
49488;SDS011;35382;51.484;11.476;2023-03-03T07:09:59;25.05;;;11.02;;
49488;SDS011;35382;51.484;11.476;2023-03-03T07:11:41;21.88;;;9.88;;
49488;SDS011;35382;51.484;11.476;2023-03-03T07:13:23;26.17;;;10.20;;
49488;SDS011;35382;51.484;11.476;2023-03-03T07:16:50;25.33;;;10.43;;
49488;SDS011;35382;51.484;11.476;2023-03-03T07:18:42;27.85;;;10.65;;
49488;SDS011;35382;51.484;11.476;2023-03-03T07:20:39;30.33;;;11.00;;
49488;SDS011;35382;51.484;11.476;2023-03-03T07:22:22;27.08;;;10.50;;
49488;SDS011;35382;51.484;11.476;2023-03-03T07:26:10;27.55;;;10.38;;
49488;SDS011;35382;51.484;11.476;2023-03-03T07:30:23;24.95;;;9.20;;
49488;SDS011;35382;51.484;11.476;2023-03-03T07:32:15;28.00;;;10.10;;
49488;SDS011;35382;51.484;11.476;2023-03-03T07:33:59;29.15;;;10.05;;
49488;SDS011;35382;51.484;11.476;2023-03-03T07:35:41;25.65;;;10.60;;
49488;SDS011;35382;51.484;11.476;2023-03-03T07:37:33;24.33;;;9.65;;
49488;SDS011;35382;51.484;11.476;2023-03-03T07:41:02;22.40;;;9.73;;
49488;SDS011;35382;51.484;11.476;2023-03-03T07:42:45;24.85;;;10.70;;
49488;SDS011;35382;51.484;11.476;2023-03-03T07:44:36;25.23;;;10.63;;
49488;SDS011;35382;51.484;11.476;2023-03-03T07:46:24;25.25;;;9.80;;
49488;SDS011;35382;51.484;11.476;2023-03-03T07:48:30;23.23;;;9.85;;
49488;SDS011;35382;51.484;11.476;2023-03-03T07:50:19;24.52;;;10.48;;
49488;SDS011;35382;51.484;11.476;2023-03-03T07:52:24;25.65;;;10.57;;
49488;SDS011;35382;51.484;11.476;2023-03-03T07:55:57;23.50;;;10.30;;
49488;SDS011;35382;51.484;11.476;2023-03-03T07:57:38;28.48;;;11.55;;
49488;SDS011;35382;51.484;11.476;2023-03-03T07:59:21;26.85;;;11.27;;
49488;SDS011;35382;51.484;11.476;2023-03-03T08:03:04;22.70;;;9.77;;
49488;SDS011;35382;51.484;11.476;2023-03-03T08:04:51;20.30;;;9.30;;
49488;SDS011;35382;51.484;11.476;2023-03-03T08:10:07;24.23;;;10.30;;
49488;SDS011;35382;51.484;11.476;2023-03-03T08:14:29;20.75;;;9.00;;
49488;SDS011;35382;51.484;11.476;2023-03-03T08:17:54;24.88;;;8.98;;
49488;SDS011;35382;51.484;11.476;2023-03-03T08:19:36;18.30;;;8.15;;
49488;SDS011;35382;51.484;11.476;2023-03-03T08:21:21;22.77;;;9.40;;
49488;SDS011;35382;51.484;11.476;2023-03-03T08:23:05;19.52;;;8.25;;
49488;SDS011;35382;51.484;11.476;2023-03-03T08:24:46;16.45;;;7.82;;
49488;SDS011;35382;51.484;11.476;2023-03-03T08:26:29;19.27;;;8.55;;
49488;SDS011;35382;51.484;11.476;2023-03-03T08:28:10;21.50;;;8.85;;
49488;SDS011;35382;51.484;11.476;2023-03-03T08:29:52;21.65;;;8.50;;
49488;SDS011;35382;51.484;11.476;2023-03-03T08:31:33;17.55;;;8.13;;
49488;SDS011;35382;51.484;11.476;2023-03-03T08:33:14;18.95;;;7.90;;
49488;SDS011;35382;51.484;11.476;2023-03-03T08:34:56;19.65;;;8.30;;
49488;SDS011;35382;51.484;11.476;2023-03-03T08:36:37;19.20;;;9.20;;
49488;SDS011;35382;51.484;11.476;2023-03-03T08:38:19;20.67;;;8.65;;
49488;SDS011;35382;51.484;11.476;2023-03-03T08:40:01;20.65;;;8.55;;
49488;SDS011;35382;51.484;11.476;2023-03-03T08:41:42;15.98;;;7.47;;
49488;SDS011;35382;51.484;11.476;2023-03-03T08:43:23;21.05;;;8.77;;
49488;SDS011;35382;51.484;11.476;2023-03-03T08:45:04;16.65;;;8.40;;
49488;SDS011;35382;51.484;11.476;2023-03-03T08:46:46;21.25;;;8.55;;
49488;SDS011;35382;51.484;11.476;2023-03-03T08:48:27;19.48;;;8.30;;
49488;SDS011;35382;51.484;11.476;2023-03-03T08:50:08;17.27;;;7.65;;
49488;SDS011;35382;51.484;11.476;2023-03-03T08:51:49;15.88;;;7.75;;
49488;SDS011;35382;51.484;11.476;2023-03-03T08:53:35;18.83;;;7.95;;
49488;SDS011;35382;51.484;11.476;2023-03-03T08:55:17;16.50;;;8.30;;
49488;SDS011;35382;51.484;11.476;2023-03-03T08:56:58;19.02;;;8.02;;
49488;SDS011;35382;51.484;11.476;2023-03-03T08:58:39;17.83;;;8.32;;
49488;SDS011;35382;51.484;11.476;2023-03-03T09:00:27;20.90;;;8.10;;
49488;SDS011;35382;51.484;11.476;2023-03-03T09:02:08;16.92;;;7.72;;
49488;SDS011;35382;51.484;11.476;2023-03-03T09:03:49;15.02;;;6.90;;
49488;SDS011;35382;51.484;11.476;2023-03-03T09:05:30;15.73;;;6.97;;
49488;SDS011;35382;51.484;11.476;2023-03-03T09:07:11;17.15;;;7.72;;
49488;SDS011;35382;51.484;11.476;2023-03-03T09:08:52;20.73;;;9.10;;
49488;SDS011;35382;51.484;11.476;2023-03-03T09:10:36;16.85;;;7.88;;
49488;SDS011;35382;51.484;11.476;2023-03-03T09:12:26;15.60;;;7.00;;
49488;SDS011;35382;51.484;11.476;2023-03-03T09:14:10;16.00;;;6.78;;
49488;SDS011;35382;51.484;11.476;2023-03-03T09:15:53;15.80;;;6.70;;
49488;SDS011;35382;51.484;11.476;2023-03-03T09:17:36;15.23;;;7.32;;
49488;SDS011;35382;51.484;11.476;2023-03-03T09:19:21;18.42;;;7.30;;
49488;SDS011;35382;51.484;11.476;2023-03-03T09:21:16;14.02;;;6.57;;
49488;SDS011;35382;51.484;11.476;2023-03-03T09:23:20;15.82;;;7.05;;
49488;SDS011;35382;51.484;11.476;2023-03-03T09:25:13;16.58;;;7.43;;
49488;SDS011;35382;51.484;11.476;2023-03-03T09:27:01;18.45;;;7.88;;
49488;SDS011;35382;51.484;11.476;2023-03-03T09:28:52;17.20;;;7.05;;
49488;SDS011;35382;51.484;11.476;2023-03-03T09:32:29;18.63;;;8.57;;
49488;SDS011;35382;51.484;11.476;2023-03-03T09:34:23;18.48;;;7.60;;
49488;SDS011;35382;51.484;11.476;2023-03-03T09:36:23;17.13;;;7.82;;
49488;SDS011;35382;51.484;11.476;2023-03-03T09:38:24;16.58;;;7.40;;
49488;SDS011;35382;51.484;11.476;2023-03-03T09:42:38;17.77;;;7.70;;
49488;SDS011;35382;51.484;11.476;2023-03-03T09:44:41;15.27;;;7.05;;
49488;SDS011;35382;51.484;11.476;2023-03-03T09:46:58;15.45;;;7.82;;
49488;SDS011;35382;51.484;11.476;2023-03-03T09:52:59;16.85;;;7.53;;
49488;SDS011;35382;51.484;11.476;2023-03-03T09:55:19;17.20;;;6.90;;
49488;SDS011;35382;51.484;11.476;2023-03-03T09:57:13;16.08;;;7.25;;
49488;SDS011;35382;51.484;11.476;2023-03-03T10:03:53;17.48;;;7.38;;
49488;SDS011;35382;51.484;11.476;2023-03-03T10:14:24;18.13;;;7.30;;
49488;SDS011;35382;51.484;11.476;2023-03-03T10:16:21;19.65;;;7.97;;
49488;SDS011;35382;51.484;11.476;2023-03-03T10:18:31;17.52;;;7.78;;
49488;SDS011;35382;51.484;11.476;2023-03-03T10:24:39;20.23;;;9.88;;
49488;SDS011;35382;51.484;11.476;2023-03-03T10:26:47;14.95;;;6.85;;
49488;SDS011;35382;51.484;11.476;2023-03-03T10:30:43;14.82;;;7.13;;
49488;SDS011;35382;51.484;11.476;2023-03-03T10:36:41;16.65;;;7.38;;
49488;SDS011;35382;51.484;11.476;2023-03-03T10:40:57;13.95;;;7.15;;
49488;SDS011;35382;51.484;11.476;2023-03-03T10:46:36;17.73;;;7.93;;
49488;SDS011;35382;51.484;11.476;2023-03-03T10:50:53;16.80;;;7.22;;
49488;SDS011;35382;51.484;11.476;2023-03-03T10:56:47;16.75;;;8.35;;
49488;SDS011;35382;51.484;11.476;2023-03-03T10:58:37;18.48;;;8.32;;
49488;SDS011;35382;51.484;11.476;2023-03-03T11:00:43;17.23;;;8.10;;
49488;SDS011;35382;51.484;11.476;2023-03-03T11:02:36;17.60;;;8.27;;
49488;SDS011;35382;51.484;11.476;2023-03-03T11:06:24;16.58;;;8.07;;
49488;SDS011;35382;51.484;11.476;2023-03-03T11:08:16;19.88;;;9.20;;
49488;SDS011;35382;51.484;11.476;2023-03-03T11:13:55;18.13;;;9.18;;
49488;SDS011;35382;51.484;11.476;2023-03-03T11:15:50;18.13;;;9.00;;
49488;SDS011;35382;51.484;11.476;2023-03-03T11:17:53;20.67;;;9.45;;
49488;SDS011;35382;51.484;11.476;2023-03-03T11:20:00;16.15;;;8.43;;
49488;SDS011;35382;51.484;11.476;2023-03-03T11:21:50;18.38;;;8.73;;
49488;SDS011;35382;51.484;11.476;2023-03-03T11:23:46;19.63;;;8.70;;
49488;SDS011;35382;51.484;11.476;2023-03-03T11:33:20;18.30;;;8.52;;
49488;SDS011;35382;51.484;11.476;2023-03-03T11:35:28;15.68;;;7.68;;
49488;SDS011;35382;51.484;11.476;2023-03-03T11:39:08;16.25;;;7.70;;
49488;SDS011;35382;51.484;11.476;2023-03-03T11:40:54;17.52;;;8.48;;